ADDS METAR Data INFO
IDs: Format: Raw Decoded Include TAF

Data at: 0933 UTC 25 Jun 2018

KRNC 250915Z AUTO 00000KT 2SM BR FEW040 20/20 A3001 RMK A01 VIS 1V5
KRNC 250855Z AUTO 00000KT 3SM BR FEW044 20/19 A3001 RMK A01
KRNC 250835Z AUTO 00000KT 2SM BR CLR 20/20 A3003 RMK A01
KRNC 250815Z AUTO 00000KT 1/2SM FG VV005 20/20 A3002 RMK A01
KRNC 250755Z AUTO 00000KT 1 3/4SM BR CLR 20/19 A3002 RMK A01 VIS 1 1/4V5
KRNC 250735Z AUTO 00000KT 1 3/4SM BR CLR 20/20 A3003 RMK A01 VIS 3/4V5
KRNC 250715Z AUTO 00000KT 3SM BR CLR 20/20 A3004 RMK A01
KRNC 250655Z AUTO 00000KT 3SM BR CLR 20/20 A3003 RMK A01
KRNC 250635Z AUTO 00000KT 2 1/2SM BR CLR 20/20 A3004 RMK A01
KRNC 250615Z AUTO 00000KT 9SM CLR 20/20 A3003 RMK A01
KRNC 250555Z AUTO 00000KT 3SM BR CLR 21/20 A3002 RMK A01
KRNC 250535Z AUTO 00000KT 9SM CLR 21/20 A3002 RMK A01
KRNC 250515Z AUTO 00000KT 10SM CLR 21/21 A3002 RMK A01
KRNC 250455Z AUTO 00000KT 9SM CLR 21/21 A3002 RMK A01
KRNC 250435Z AUTO 00000KT 1 3/4SM BR CLR 22/21 A3003 RMK A01 VIS 1V3
KRNC 250415Z AUTO 00000KT 10SM CLR 22/21 A3003 RMK A01
KRNC 250355Z AUTO 00000KT 7SM CLR 22/22 A3002 RMK A01
KRNC 250335Z AUTO 00000KT 2 1/2SM BR CLR 22/21 A3002 RMK A01 VIS 1 1/2V5
KRNC 250315Z AUTO 00000KT 10SM CLR 23/22 A3002 RMK A01
KRNC 250255Z AUTO 21003KT 10SM CLR 23/22 A3003 RMK A01
KRNC 250235Z AUTO 22005KT 10SM FEW110 23/22 A3003 RMK A01
KRNC 250215Z AUTO 21004KT 10SM CLR 23/22 A3004 RMK A01
KRNC 250155Z AUTO 20003KT 10SM FEW044 FEW050 FEW060 23/22 A3003 RMK A01 P0013
KRNC 250135Z AUTO 00000KT 10SM FEW045 FEW055 SCT085 23/21 A3003 RMK A01
KRNC 250115Z AUTO 00000KT 4SM BR FEW003 SCT048 BKN055 23/22 A3002 RMK A01
KRNC 250055Z AUTO 27005KT 10SM BKN050 OVC055 25/21 A3003 RMK A01
KRNC 250035Z AUTO 00000KT 10SM BKN060 BKN070 25/21 A3001 RMK A01
KRNC 250015Z AUTO 00000KT 10SM FEW060 BKN075 25/21 A3001 RMK A01
KRNC 242355Z AUTO 00000KT 10SM FEW055 SCT065 OVC075 25/21 A3000 RMK A01
KRNC 242335Z AUTO 00000KT 10SM BKN050 BKN080 26/21 A3001 RMK A01
KRNC 242315Z AUTO 00000KT 10SM FEW050 26/21 A3001 RMK A01
KRNC 242255Z AUTO 00000KT 10SM CLR 24/20 A3000 RMK A01
KRNC 242235Z AUTO 19004KT 10SM CLR 24/20 A3001 RMK A01
KRNC 242215Z AUTO 00000KT 10SM CLR 23/20 A3000 RMK A01
KRNC 242155Z AUTO 00000KT 10SM CLR 23/20 A3001 RMK A01
KRNC 242135Z AUTO 18003KT 10SM CLR 23/20 A3000 RMK A01
KRNC 242115Z AUTO 23004KT 10SM CLR 23/20 A3001 RMK A01
KRNC 242055Z AUTO VRB06G12KT 10SM FEW055 FEW070 SCT120 23/19 A3002 RMK A01
KRNC 242035Z AUTO 24013G26KT 10SM FEW046 BKN055 BKN075 25/18 A3004 RMK A01
KRNC 242015Z AUTO 25011KT 10SM SCT080 SCT090 30/21 A3001 RMK A01
KRNC 241955Z AUTO 27009G14KT 10SM FEW047 FEW055 SCT070 32/21 A2999 RMK A01
KRNC 241935Z AUTO 26006G13KT 10SM FEW042 FEW047 SCT070 32/22 A2998 RMK A01
KRNC 241915Z AUTO 22007G13KT 10SM SCT041 BKN050 31/22 A2999 RMK A01
KRNC 241855Z AUTO 28006KT 10SM SCT040 SCT050 31/22 A2999 RMK A01
KRNC 241835Z AUTO 29006G16KT 250V310 10SM SCT040 SCT048 31/22 A3000 RMK A01
KRNC 241815Z AUTO 30005KT 10SM SCT034 SCT042 SCT049 31/23 A3000 RMK A01
KRNC 241755Z AUTO 23008KT 210V280 10SM SCT034 SCT049 30/23 A3000 RMK A01
KRNC 241735Z AUTO 26008KT 230V290 10SM FEW037 31/23 A3000 RMK A01
KRNC 241715Z AUTO 24006G12KT 10SM FEW030 SCT036 SCT042 30/23 A3001 RMK A01
KRNC 241655Z AUTO 26008G13KT 10SM SCT027 SCT035 BKN042 29/23 A3001 RMK A01
KRNC 241635Z AUTO 27006G15KT 10SM FEW025 SCT030 BKN050 29/24 A3002 RMK A01
KRNC 241615Z AUTO 27007G13KT 260V320 10SM SCT025 SCT029 BKN033 29/23 A3002 RMK A01
KRNC 241555Z AUTO 25008KT 10SM FEW022 SCT028 BKN037 29/24 A3002 RMK A01
KRNC 241535Z AUTO 26009G15KT 10SM BKN022 BKN027 BKN031 29/24 A3002 RMK A01
KRNC 241515Z AUTO 23007G13KT 10SM BKN021 BKN028 28/23 A3001 RMK A01
KRNC 241455Z AUTO 28007G12KT 250V310 10SM BKN021 BKN029 BKN039 28/23 A3001 RMK A01
KRNC 241435Z AUTO 25010KT 10SM BKN020 BKN030 OVC039 27/23 A3001 RMK A01
KRNC 241415Z AUTO 25006KT 10SM BKN018 BKN029 BKN034 27/23 A3001 RMK A01
KRNC 241355Z AUTO 23006KT 10SM SCT017 BKN027 BKN038 26/23 A3001 RMK A01
KRNC 241335Z AUTO 24007KT 10SM FEW016 BKN023 OVC028 26/23 A3001 RMK A01
KRNC 241315Z AUTO 23007KT 10SM BKN018 OVC023 25/23 A3001 RMK A01
KRNC 241255Z AUTO 23006KT 10SM BKN021 BKN026 OVC031 25/23 A3000 RMK A01
KRNC 241235Z AUTO 24005KT 10SM BKN024 OVC034 25/23 A2999 RMK A01
KRNC 241215Z AUTO 23006KT 10SM BKN021 BKN031 OVC037 24/23 A2998 RMK A01
KRNC 241155Z AUTO 24006KT 10SM BKN022 BKN027 OVC032 24/22 A2998 RMK A01
KRNC 241135Z AUTO 24005KT 9SM FEW023 BKN030 BKN046 23/22 A2998 RMK A01
KRNC 241115Z AUTO 23005KT 10SM FEW035 SCT044 BKN055 23/22 A2997 RMK A01
KRNC 241055Z AUTO 5.37500005KT 9SM FEW022 FEW033 SCT045 23/22 A2997 RMK A01
KRNC 241035Z AUTO 22006KT 10SM FEW023 SCT036 BKN050 23/22 A2996 RMK A01
KRNC 241015Z AUTO VRB05KT 10SM FEW018 FEW029 SCT036 23/22 A2995 RMK A01
KRNC 240955Z AUTO 22005KT 10SM SCT018 SCT034 BKN041 23/22 A2995 RMK A01
KRNC 240935Z AUTO 22007KT 10SM FEW015 SCT033 BKN060 23/22 A2994 RMK A01
KRNC 240915Z AUTO VRB05KT 10SM FEW050 FEW060 SCT070 23/22 A2994 RMK A01
KRNC 240855Z AUTO 23004KT 10SM FEW018 FEW031 SCT060 23/22 A2994 RMK A01
KRNC 240835Z AUTO 23004KT 10SM SCT019 SCT026 BKN075 24/22 A2994 RMK A01
KRNC 240815Z AUTO 21006KT 10SM BKN021 BKN027 BKN075 24/22 A2993 RMK A01
KRNC 240755Z AUTO 23006KT 10SM OVC020 24/22 A2993 RMK A01
KRNC 240735Z AUTO 23008KT 10SM BKN020 OVC031 24/22 A2992 RMK A01
KRNC 240715Z AUTO 22005KT 10SM FEW021 SCT030 BKN045 24/22 A2992 RMK A01
KRNC 240655Z AUTO 22005KT 10SM BKN029 24/22 A2992 RMK A01
KRNC 240635Z AUTO 21005KT 10SM CLR 24/22 A2992 RMK A01
KRNC 240615Z AUTO 22004KT 10SM FEW017 FEW042 FEW060 24/22 A2993 RMK A01
KRNC 240555Z AUTO 23005KT 10SM SCT014 SCT042 BKN065 24/22 A2994 RMK A01
KRNC 240535Z AUTO 23005KT 10SM BKN015 BKN046 OVC065 24/22 A2993 RMK A01
KRNC 240515Z AUTO 23006KT 10SM BKN017 BKN023 OVC045 24/22 A2993 RMK A01
KRNC 240455Z AUTO 22005KT 10SM OVC016 24/22 A2992 RMK A01
KRNC 240435Z AUTO 23003KT 10SM OVC015 24/22 A2992 RMK A01
KRNC 240415Z AUTO 21003KT 10SM OVC015 24/22 A2992 RMK A01
KRNC 240355Z AUTO 21004KT 10SM OVC016 24/22 A2992 RMK A01
KRNC 240335Z AUTO VRB03KT 10SM OVC017 24/22 A2992 RMK A01
KRNC 240315Z AUTO 22003KT 10SM BKN019 OVC025 24/22 A2993 RMK A01
KRNC 240255Z AUTO 22004KT 10SM BKN023 OVC028 24/22 A2992 RMK A01
KRNC 240235Z AUTO 23004KT 10SM FEW016 BKN024 OVC031 24/22 A2992 RMK A01
KRNC 240215Z AUTO VRB05KT 10SM BKN017 BKN025 OVC031 24/22 A2991 RMK A01
KRNC 240155Z AUTO 22004KT 10SM SCT018 BKN024 BKN029 24/21 A2990 RMK A01
KRNC 240135Z AUTO 22004KT 10SM FEW026 SCT034 SCT042 24/21 A2990 RMK A01
KRNC 240115Z AUTO 22005G11KT 10SM CLR 24/21 A2988 RMK A01
KRNC 240055Z AUTO VRB05G12KT 10SM FEW039 25/21 A2988 RMK A01
KRNC 240035Z AUTO 22005G10KT 10SM FEW038 25/21 A2988 RMK A01
KRNC 240015Z AUTO 24007G12KT 10SM FEW020 25/21 A2988 RMK A01
KRNC 232355Z AUTO 24010KT 200V260 10SM BKN019 25/21 A2987 RMK A01
KRNC 232335Z AUTO 24009G15KT 10SM FEW018 26/22 A2987 RMK A01
KRNC 232315Z AUTO 22011G18KT 10SM CLR 25/21 A2987 RMK A01
KRNC 232255Z AUTO 23010G15KT 10SM CLR 25/21 A2986 RMK A01
KRNC 232235Z AUTO 24009KT 10SM CLR 25/21 A2987 RMK A01
KRNC 232215Z AUTO 23007KT 10SM CLR 25/21 A2988 RMK A01
KRNC 232155Z AUTO 24010G19KT 10SM CLR 25/21 A2989 RMK A01
KRNC 232135Z AUTO 22007G16KT 10SM CLR 25/21 A2989 RMK A01